createdAt,value
2019-03-28T00:00:28.083Z,6.63
2019-03-28T00:02:56.054Z,7.27
2019-03-28T00:05:24.147Z,6.50
2019-03-28T00:07:52.432Z,6.83
2019-03-28T00:10:20.428Z,8.38
2019-03-28T00:12:48.636Z,8.50
2019-03-28T00:15:16.642Z,7.20
2019-03-28T00:17:44.635Z,8.00
2019-03-28T00:20:12.670Z,6.23
2019-03-28T00:22:56.063Z,7.13
2019-03-28T00:25:24.067Z,7.33
2019-03-28T00:27:52.095Z,7.70
2019-03-28T00:30:21.634Z,8.23
2019-03-28T00:32:49.582Z,8.80
2019-03-28T00:35:17.732Z,9.30
2019-03-28T00:37:45.802Z,8.90
2019-03-28T00:40:13.842Z,8.60
2019-03-28T00:42:41.850Z,9.07
2019-03-28T00:45:09.962Z,8.13
2019-03-28T00:47:38.130Z,8.13
2019-03-28T00:50:08.188Z,8.03
2019-03-28T00:52:36.461Z,8.30
2019-03-28T00:55:05.081Z,8.70
2019-03-28T00:57:34.273Z,9.07
2019-03-28T01:00:22.348Z,8.83
2019-03-28T01:02:50.377Z,8.73
2019-03-28T01:05:18.529Z,10.90
2019-03-28T01:07:47.212Z,9.70
2019-03-28T01:10:15.454Z,9.43
2019-03-28T01:12:43.434Z,9.03
2019-03-28T01:15:11.551Z,8.00
2019-03-28T01:17:39.497Z,8.10
2019-03-28T01:20:07.546Z,9.70
2019-03-28T01:22:36.626Z,8.87
2019-03-28T01:25:04.629Z,9.60
2019-03-28T01:27:32.625Z,9.03
2019-03-28T01:30:00.624Z,9.67
2019-03-28T01:32:28.698Z,9.53
2019-03-28T01:34:58.216Z,10.50
2019-03-28T01:37:26.442Z,7.73
2019-03-28T01:39:54.378Z,9.23
2019-03-28T01:42:22.384Z,8.60
2019-03-28T01:44:50.882Z,8.97
2019-03-28T01:47:18.889Z,9.40
2019-03-28T01:49:48.933Z,9.43
2019-03-28T01:52:16.813Z,9.83
2019-03-28T01:54:44.676Z,8.70
2019-03-28T01:57:12.944Z,8.70
2019-03-28T01:59:40.967Z,9.67
2019-03-28T02:02:08.874Z,9.85
2019-03-28T02:04:37.046Z,9.90
2019-03-28T02:07:06.171Z,10.60
2019-03-28T02:09:34.139Z,9.40
2019-03-28T02:12:02.138Z,8.83
2019-03-28T02:14:30.079Z,9.47
2019-03-28T02:16:58.181Z,8.57
2019-03-28T02:19:26.271Z,9.10
2019-03-28T02:21:55.449Z,9.40
2019-03-28T02:24:23.559Z,9.53
2019-03-28T02:26:54.046Z,10.30
2019-03-28T02:29:21.992Z,10.50
2019-03-28T02:31:52.973Z,9.23
2019-03-28T02:34:20.926Z,8.67
2019-03-28T02:36:52.799Z,9.57
2019-03-28T02:39:20.718Z,9.40
2019-03-28T02:41:52.134Z,10.33
2019-03-28T02:44:20.283Z,10.67
2019-03-28T02:46:50.956Z,11.57
2019-03-28T02:49:19.704Z,9.87
2019-03-28T02:51:50.009Z,10.50
2019-03-28T02:54:17.985Z,11.17
2019-03-28T02:56:46.055Z,10.57
2019-03-28T02:59:14.018Z,10.93
2019-03-28T03:01:42.192Z,10.47
2019-03-28T03:04:11.360Z,12.00
2019-03-28T03:06:39.647Z,12.27
2019-03-28T03:09:08.962Z,14.20
2019-03-28T03:11:42.468Z,12.00
2019-03-28T03:14:08.302Z,11.87
2019-03-28T03:16:36.723Z,11.57
2019-03-28T03:19:04.870Z,11.67
2019-03-28T03:21:33.000Z,12.47
2019-03-28T03:24:01.085Z,13.13
2019-03-28T03:26:29.143Z,12.97
2019-03-28T03:28:57.302Z,13.37
2019-03-28T03:31:26.510Z,14.30
2019-03-28T03:33:55.195Z,14.70
2019-03-28T03:36:23.366Z,15.10
2019-03-28T03:38:51.349Z,16.33
2019-03-28T03:41:19.450Z,16.20
2019-03-28T03:43:47.559Z,15.60
2019-03-28T03:46:15.613Z,16.17
2019-03-28T03:48:43.639Z,16.90
2019-03-28T03:51:11.667Z,17.90
2019-03-28T03:53:42.488Z,16.87
2019-03-28T03:56:10.500Z,16.50
2019-03-28T03:58:38.776Z,16.60
2019-03-28T04:01:06.711Z,18.50
2019-03-28T04:03:34.954Z,20.80
2019-03-28T04:06:03.333Z,19.05
2019-03-28T04:08:32.469Z,18.77
2019-03-28T04:11:00.442Z,23.17
2019-03-28T04:13:28.535Z,22.80
2019-03-28T04:15:56.577Z,20.20
2019-03-28T04:18:24.577Z,21.20
2019-03-28T04:20:52.635Z,22.20
2019-03-28T04:23:22.887Z,24.13
2019-03-28T04:25:51.045Z,23.07
2019-03-28T04:28:31.821Z,22.37
2019-03-28T04:30:50.661Z,23.27
2019-03-28T04:33:18.711Z,22.53
2019-03-28T04:35:46.765Z,22.80
2019-03-28T04:38:15.632Z,25.20
2019-03-28T04:40:43.717Z,22.50
2019-03-28T04:43:11.775Z,24.03
2019-03-28T04:45:39.890Z,23.53
2019-03-28T04:48:07.852Z,23.80
2019-03-28T04:50:36.229Z,24.43
2019-03-28T04:53:04.250Z,23.17
2019-03-28T04:55:32.323Z,27.00
2019-03-28T04:58:00.338Z,26.50
2019-03-28T05:00:28.352Z,25.70
2019-03-28T05:02:56.934Z,26.40
2019-03-28T05:05:25.588Z,24.53
2019-03-28T05:07:56.424Z,26.43
2019-03-28T05:10:24.573Z,25.33
2019-03-28T05:12:52.694Z,25.03
2019-03-28T05:15:23.139Z,26.27
2019-03-28T05:17:51.329Z,28.33
2019-03-28T05:20:22.654Z,27.00
2019-03-28T05:22:50.661Z,28.40
2019-03-28T05:25:19.115Z,25.70
2019-03-28T05:27:47.313Z,26.37
2019-03-28T05:30:16.127Z,26.10
2019-03-28T05:32:44.408Z,24.07
2019-03-28T05:35:12.595Z,28.10
2019-03-28T05:37:40.652Z,26.37
2019-03-28T05:40:09.634Z,28.90
2019-03-28T05:42:37.685Z,28.73
2019-03-28T05:45:05.904Z,26.40
2019-03-28T05:47:33.980Z,29.60
2019-03-28T05:50:02.065Z,28.60
2019-03-28T05:52:30.131Z,27.27
2019-03-28T05:54:58.108Z,28.10
2019-03-28T05:57:26.291Z,29.70
2019-03-28T05:59:57.084Z,29.10
2019-03-28T06:02:25.190Z,29.50
2019-03-28T06:04:53.238Z,28.77
2019-03-28T06:07:21.288Z,28.23
2019-03-28T06:09:49.362Z,28.20
2019-03-28T06:12:18.978Z,27.67
2019-03-28T06:14:49.998Z,27.10
2019-03-28T06:17:17.892Z,27.80
2019-03-28T06:19:46.156Z,26.07
2019-03-28T06:22:15.384Z,30.10
2019-03-28T06:24:43.703Z,40.13
2019-03-28T06:27:11.745Z,27.83
2019-03-28T06:29:39.935Z,28.73
2019-03-28T06:32:07.936Z,28.67
2019-03-28T06:34:36.038Z,27.47
2019-03-28T06:37:04.206Z,26.80
2019-03-28T06:39:32.224Z,24.60
2019-03-28T06:42:00.911Z,25.50
2019-03-28T06:44:29.037Z,25.67
2019-03-28T06:46:57.030Z,27.33
2019-03-28T06:49:25.336Z,25.00
2019-03-28T06:51:55.968Z,23.10
2019-03-28T06:54:24.497Z,25.37
2019-03-28T06:56:55.182Z,24.77
2019-03-28T06:59:36.277Z,22.23
2019-03-28T07:01:56.635Z,23.17
2019-03-28T07:04:24.781Z,24.30
2019-03-28T07:06:53.484Z,24.70
2019-03-28T07:09:21.738Z,22.43
2019-03-28T07:11:49.953Z,22.40
2019-03-28T07:14:18.301Z,24.50
2019-03-28T07:16:46.623Z,22.53
2019-03-28T07:19:14.757Z,22.57
2019-03-28T07:21:43.092Z,22.90
2019-03-28T07:24:11.243Z,27.00
2019-03-28T07:26:39.351Z,27.63
2019-03-28T07:29:07.333Z,25.68
2019-03-28T07:31:35.817Z,24.87
2019-03-28T07:34:04.039Z,24.33
2019-03-28T07:36:32.620Z,23.93
2019-03-28T07:39:00.631Z,23.17
2019-03-28T07:41:28.618Z,23.60
2019-03-28T07:43:56.574Z,25.10
2019-03-28T07:46:24.721Z,22.50
2019-03-28T07:48:52.890Z,25.60
2019-03-28T07:51:21.062Z,25.73
2019-03-28T07:53:49.075Z,25.80
2019-03-28T07:56:17.522Z,27.00
2019-03-28T07:58:45.627Z,24.90
2019-03-28T08:01:13.512Z,22.77
2019-03-28T08:03:41.464Z,25.50
2019-03-28T08:06:12.789Z,23.03
2019-03-28T08:08:42.604Z,23.60
2019-03-28T08:11:10.282Z,23.23
2019-03-28T08:13:38.322Z,24.03
2019-03-28T08:16:06.266Z,22.27
2019-03-28T08:18:34.489Z,21.53
2019-03-28T08:21:02.673Z,21.77
2019-03-28T08:23:35.044Z,22.00
2019-03-28T08:26:00.814Z,21.00
2019-03-28T08:28:29.093Z,21.73
2019-03-28T08:30:57.164Z,19.80
2019-03-28T08:33:25.082Z,21.13
2019-03-28T08:35:54.690Z,19.03
2019-03-28T08:38:24.957Z,20.27
2019-03-28T08:40:53.076Z,21.37
2019-03-28T08:43:21.158Z,17.23
2019-03-28T08:45:49.317Z,17.07
2019-03-28T08:48:20.678Z,16.83
2019-03-28T08:50:48.624Z,16.87
2019-03-28T08:53:16.676Z,16.50
2019-03-28T08:55:45.206Z,15.00
2019-03-28T08:58:14.281Z,15.30
2019-03-28T09:00:51.666Z,17.30
2019-03-28T09:03:12.444Z,15.20
2019-03-28T09:05:42.421Z,14.67
2019-03-28T09:08:10.364Z,14.30
2019-03-28T09:10:38.666Z,15.80
2019-03-28T09:13:06.673Z,14.70
2019-03-28T09:15:43.493Z,15.97
2019-03-28T09:18:04.943Z,14.90
2019-03-28T09:20:34.141Z,14.80
2019-03-28T09:23:02.138Z,13.63
2019-03-28T09:25:30.200Z,12.63
2019-03-28T09:27:58.345Z,15.13
2019-03-28T09:30:48.251Z,15.37
2019-03-28T09:33:08.784Z,14.47
2019-03-28T09:35:36.859Z,15.63
2019-03-28T09:38:04.898Z,14.63
2019-03-28T09:40:32.985Z,14.33
2019-03-28T09:43:00.987Z,14.77
2019-03-28T09:45:30.151Z,12.00
2019-03-28T09:47:58.310Z,13.37
2019-03-28T09:50:26.520Z,13.57
2019-03-28T09:52:54.595Z,12.43
2019-03-28T09:55:22.890Z,12.20
2019-03-28T09:57:50.734Z,13.33
2019-03-28T10:00:19.509Z,11.97
2019-03-28T10:02:47.568Z,11.33
2019-03-28T10:05:15.602Z,11.73
2019-03-28T10:07:43.667Z,11.50
2019-03-28T10:10:12.163Z,10.73
2019-03-28T10:12:40.190Z,10.57
2019-03-28T10:15:09.267Z,8.60
2019-03-28T10:17:37.332Z,10.17
2019-03-28T10:20:05.834Z,10.63
2019-03-28T10:22:33.906Z,10.37
2019-03-28T10:25:01.933Z,10.40
2019-03-28T10:27:29.897Z,9.70
2019-03-28T10:29:57.866Z,10.10
2019-03-28T10:32:25.990Z,8.70
2019-03-28T10:34:53.951Z,9.33
2019-03-28T10:37:22.034Z,10.27
2019-03-28T10:39:50.029Z,10.33
2019-03-28T10:42:20.593Z,8.50
2019-03-28T10:44:48.769Z,8.90
2019-03-28T10:47:16.695Z,9.80
2019-03-28T10:49:45.153Z,9.37
2019-03-28T10:52:15.434Z,8.70
2019-03-28T10:54:43.689Z,10.43
2019-03-28T10:57:15.578Z,9.90
2019-03-28T10:59:41.688Z,10.70
2019-03-28T11:02:09.820Z,9.77
2019-03-28T11:04:37.775Z,11.13
2019-03-28T11:07:05.839Z,9.80
2019-03-28T11:09:34.556Z,10.77
2019-03-28T11:12:02.858Z,11.03
2019-03-28T11:14:30.999Z,10.80
2019-03-28T11:16:59.172Z,10.50
2019-03-28T11:19:27.243Z,9.80
2019-03-28T11:21:58.542Z,9.70
2019-03-28T11:24:26.884Z,11.73
2019-03-28T11:26:54.913Z,10.83
2019-03-28T11:29:22.880Z,11.87
2019-03-28T11:31:52.520Z,11.80
2019-03-28T11:34:21.030Z,11.87
2019-03-28T11:36:49.087Z,11.57
2019-03-28T11:39:17.971Z,12.47
2019-03-28T11:41:48.841Z,11.80
2019-03-28T11:44:17.262Z,11.27
2019-03-28T11:46:45.192Z,12.17
2019-03-28T11:49:15.018Z,11.50
2019-03-28T11:51:43.149Z,13.27
2019-03-28T11:54:11.812Z,11.50
2019-03-28T11:56:40.129Z,11.63
2019-03-28T11:59:11.211Z,12.47
2019-03-28T12:01:39.905Z,12.00
2019-03-28T12:04:08.255Z,12.30
2019-03-28T12:06:36.462Z,13.38
2019-03-28T12:09:06.678Z,12.50
2019-03-28T12:11:35.204Z,15.17
2019-03-28T12:14:04.004Z,11.53
2019-03-28T12:16:32.427Z,12.20
2019-03-28T12:19:00.726Z,12.90
2019-03-28T12:21:29.284Z,10.70
2019-03-28T12:23:57.206Z,9.30
2019-03-28T12:26:25.158Z,10.43
2019-03-28T12:28:53.242Z,10.37
2019-03-28T12:31:21.443Z,9.03
2019-03-28T12:33:49.446Z,10.80
2019-03-28T12:36:18.748Z,9.10
2019-03-28T12:38:47.089Z,9.93
2019-03-28T12:41:16.258Z,7.93
2019-03-28T12:43:44.202Z,8.27
2019-03-28T12:46:12.183Z,8.90
2019-03-28T12:48:40.327Z,8.63
2019-03-28T12:51:08.286Z,8.87
2019-03-28T12:53:36.642Z,9.77
2019-03-28T12:56:04.894Z,9.67
2019-03-28T12:58:33.141Z,10.10
2019-03-28T13:01:01.361Z,9.97
2019-03-28T13:03:34.817Z,10.07
2019-03-28T13:05:59.347Z,9.93
2019-03-28T13:11:15.268Z,9.60
2019-03-28T13:13:43.220Z,10.17
2019-03-28T13:16:11.206Z,9.80
2019-03-28T13:18:39.261Z,10.53
2019-03-28T13:21:13.520Z,11.43
2019-03-28T13:23:37.185Z,11.03
2019-03-28T13:26:05.303Z,11.53
2019-03-28T13:28:33.316Z,12.40
2019-03-28T13:31:01.279Z,10.63
2019-03-28T13:33:29.226Z,9.40
2019-03-28T13:35:57.533Z,8.93
2019-03-28T13:38:25.561Z,9.60
2019-03-28T13:40:53.646Z,9.90
2019-03-28T13:43:21.731Z,9.73
2019-03-28T13:45:49.835Z,10.17
2019-03-28T13:48:18.277Z,9.60
2019-03-28T13:50:46.345Z,10.07
2019-03-28T13:53:39.405Z,10.37
2019-03-28T13:56:04.660Z,8.43
2019-03-28T13:58:33.641Z,8.77
2019-03-28T14:01:01.620Z,8.63
2019-03-28T14:03:29.998Z,9.13
2019-03-28T14:05:58.282Z,8.43
2019-03-28T14:08:26.349Z,8.50
2019-03-28T14:10:54.526Z,8.43
2019-03-28T14:13:22.543Z,8.20
2019-03-28T14:15:50.845Z,8.43
2019-03-28T14:18:19.155Z,7.43
2019-03-28T14:20:47.430Z,8.67
2019-03-28T14:23:28.096Z,7.40
2019-03-28T14:25:57.961Z,7.20
2019-03-28T14:28:26.228Z,7.80
2019-03-28T14:30:54.382Z,6.78
2019-03-28T14:33:22.528Z,5.50
2019-03-28T14:35:50.803Z,4.77
2019-03-28T14:38:19.352Z,5.57
2019-03-28T14:40:47.613Z,5.50
2019-03-28T14:43:17.313Z,6.50
2019-03-28T14:45:45.449Z,6.60
2019-03-28T14:48:14.139Z,6.10
2019-03-28T14:50:45.057Z,7.53
2019-03-28T14:53:13.462Z,6.70
2019-03-28T14:55:41.600Z,6.40
2019-03-28T14:58:09.787Z,7.90
2019-03-28T15:00:46.996Z,7.20
2019-03-28T15:03:25.572Z,7.37
2019-03-28T15:05:46.510Z,6.27
2019-03-28T15:08:14.919Z,6.60
2019-03-28T15:10:42.894Z,6.80
2019-03-28T15:13:10.864Z,6.70
2019-03-28T15:15:39.050Z,6.43
2019-03-28T15:18:07.244Z,6.83
2019-03-28T15:20:35.383Z,7.60
2019-03-28T15:23:03.523Z,7.77
2019-03-28T15:25:31.651Z,8.43
2019-03-28T15:27:59.802Z,7.20
2019-03-28T15:30:27.783Z,7.03
2019-03-28T15:32:55.932Z,7.50
2019-03-28T15:35:24.058Z,8.10
2019-03-28T15:37:52.156Z,8.55
2019-03-28T15:40:20.253Z,7.77
2019-03-28T15:42:48.559Z,8.95
2019-03-28T15:45:17.345Z,6.83
2019-03-28T15:47:45.367Z,7.60
2019-03-28T15:50:15.416Z,7.20
2019-03-28T15:52:43.623Z,6.10
2019-03-28T15:55:14.704Z,6.47
2019-03-28T15:57:42.874Z,6.80
2019-03-28T16:00:11.273Z,6.47
2019-03-28T16:02:39.555Z,6.27
2019-03-28T16:05:07.688Z,6.30
2019-03-28T16:07:35.900Z,7.27
2019-03-28T16:10:05.078Z,8.73
2019-03-28T16:12:33.122Z,9.30
2019-03-28T16:15:01.626Z,8.80
2019-03-28T16:17:29.843Z,11.60
2019-03-28T16:20:00.751Z,10.50
2019-03-28T16:22:28.958Z,8.60
2019-03-28T16:24:57.040Z,8.33
2019-03-28T16:27:25.184Z,10.10
2019-03-28T16:29:54.415Z,10.00
2019-03-28T16:32:23.880Z,8.80
2019-03-28T16:34:51.864Z,9.57
2019-03-28T16:37:19.968Z,8.20
2019-03-28T16:39:49.993Z,7.27
2019-03-28T16:42:25.363Z,6.67
2019-03-28T16:44:53.488Z,7.03
2019-03-28T16:47:21.897Z,7.53
2019-03-28T16:49:49.878Z,8.60
2019-03-28T16:52:19.692Z,8.40
2019-03-28T16:54:48.367Z,9.65
2019-03-28T16:57:16.825Z,8.27
2019-03-28T16:59:45.210Z,7.97
2019-03-28T17:02:15.274Z,8.90
2019-03-28T17:04:43.463Z,8.30
2019-03-28T17:07:11.723Z,7.80
2019-03-28T17:09:39.805Z,7.40
2019-03-28T17:12:07.918Z,7.17
2019-03-28T17:14:36.047Z,6.90
2019-03-28T17:17:04.194Z,6.57
2019-03-28T17:19:32.396Z,5.70
2019-03-28T17:22:00.586Z,6.37
2019-03-28T17:24:28.651Z,6.10
2019-03-28T17:26:56.562Z,6.40
2019-03-28T17:29:24.666Z,5.60
2019-03-28T17:31:52.641Z,7.70
2019-03-28T17:34:33.744Z,6.83
2019-03-28T17:36:50.296Z,9.90
2019-03-28T17:39:18.782Z,8.20
2019-03-28T17:41:47.063Z,8.10
2019-03-28T17:44:18.348Z,6.33
2019-03-28T17:46:46.276Z,7.00
2019-03-28T17:49:15.406Z,6.90
2019-03-28T17:51:43.466Z,7.00
2019-03-28T17:54:11.957Z,6.57
2019-03-28T17:56:40.097Z,7.27
2019-03-28T17:59:08.299Z,7.77
2019-03-28T18:01:36.418Z,8.27
2019-03-28T18:04:04.571Z,8.30
2019-03-28T18:06:32.626Z,8.63
2019-03-28T18:09:01.816Z,8.10
2019-03-28T18:11:31.262Z,8.43
2019-03-28T18:14:00.840Z,8.90
2019-03-28T18:16:29.103Z,9.53
2019-03-28T18:18:57.235Z,8.90
2019-03-28T18:21:25.180Z,8.47
2019-03-28T18:23:53.335Z,8.90
2019-03-28T18:26:21.463Z,9.27
2019-03-28T18:28:49.530Z,9.80
2019-03-28T18:31:19.468Z,9.40
2019-03-28T18:33:47.536Z,8.37
2019-03-28T18:36:15.748Z,8.93
2019-03-28T18:38:43.898Z,9.07
2019-03-28T18:41:12.714Z,9.67
2019-03-28T18:43:41.049Z,10.90
2019-03-28T18:46:09.147Z,9.00
2019-03-28T18:48:38.383Z,10.10
2019-03-28T18:51:06.668Z,9.70
2019-03-28T18:53:34.787Z,9.40
2019-03-28T18:56:02.926Z,9.90
2019-03-28T18:58:31.751Z,9.60
2019-03-28T19:01:00.042Z,8.70
2019-03-28T19:03:28.166Z,11.10
2019-03-28T19:05:56.902Z,13.10
2019-03-28T19:08:24.989Z,13.20
2019-03-28T19:10:53.227Z,12.43
2019-03-28T19:13:21.372Z,12.73
2019-03-28T19:15:49.996Z,13.13
2019-03-28T19:18:19.053Z,11.60
2019-03-28T19:20:47.009Z,11.80
2019-03-28T19:23:15.814Z,14.68
2019-03-28T19:25:46.735Z,13.65
2019-03-28T19:28:28.206Z,12.10
2019-03-28T19:30:45.275Z,11.10
2019-03-28T19:33:16.495Z,11.70
2019-03-28T19:35:46.650Z,10.30
2019-03-28T19:38:17.375Z,12.50
2019-03-28T19:40:45.370Z,11.40
2019-03-28T19:43:21.008Z,11.70
2019-03-28T19:45:46.407Z,12.80
2019-03-28T19:48:15.170Z,10.70
2019-03-28T19:50:43.260Z,10.60
2019-03-28T19:53:11.929Z,10.50
2019-03-28T19:55:40.348Z,9.43
2019-03-28T19:58:08.471Z,10.10
2019-03-28T20:00:36.785Z,10.10
2019-03-28T20:03:05.187Z,12.05
2019-03-28T20:05:46.427Z,10.80
2019-03-28T20:08:14.771Z,9.93
2019-03-28T20:10:34.690Z,11.83
2019-03-28T20:13:05.263Z,10.07
2019-03-28T20:15:33.357Z,9.50
2019-03-28T20:18:02.061Z,11.90
2019-03-28T20:20:30.372Z,12.83
2019-03-28T20:22:58.565Z,11.90
2019-03-28T20:25:26.599Z,12.37
2019-03-28T20:27:54.545Z,13.00
2019-03-28T20:30:22.722Z,12.23
2019-03-28T20:32:50.656Z,11.53
2019-03-28T20:35:19.089Z,10.10
2019-03-28T20:37:47.203Z,14.83
2019-03-28T20:40:16.152Z,13.60
2019-03-28T20:42:44.235Z,13.90
2019-03-28T20:45:14.039Z,14.63
2019-03-28T20:47:42.186Z,12.88
2019-03-28T20:50:12.352Z,12.33
2019-03-28T20:52:40.951Z,11.73
2019-03-28T20:55:09.496Z,12.13
2019-03-28T20:57:40.342Z,11.97
2019-03-28T21:00:10.119Z,12.30
2019-03-28T21:02:38.392Z,11.63
2019-03-28T21:05:07.315Z,12.30
2019-03-28T21:07:35.754Z,12.57
2019-03-28T21:10:04.879Z,13.53
2019-03-28T21:12:33.096Z,13.20
2019-03-28T21:15:01.321Z,14.13
2019-03-28T21:17:32.052Z,13.53
2019-03-28T21:20:01.659Z,16.73
2019-03-28T21:22:30.997Z,15.33
2019-03-28T21:24:59.135Z,17.27
2019-03-28T21:27:27.513Z,13.50
2019-03-28T21:29:55.767Z,16.93
2019-03-28T21:32:23.791Z,16.87
2019-03-28T21:34:51.891Z,14.47
2019-03-28T21:37:20.195Z,15.83
2019-03-28T21:39:48.487Z,15.17
2019-03-28T21:42:16.550Z,13.50
2019-03-28T21:44:44.788Z,14.47
2019-03-28T21:47:13.338Z,13.70
2019-03-28T21:49:42.469Z,13.30
2019-03-28T21:52:10.729Z,12.60
2019-03-28T21:54:38.848Z,13.07
2019-03-28T21:57:07.350Z,14.00
2019-03-28T21:59:35.684Z,13.37
2019-03-28T22:02:07.413Z,13.73
2019-03-28T22:04:35.700Z,14.30
2019-03-28T22:07:04.755Z,13.73
2019-03-28T22:09:34.059Z,15.95
2019-03-28T22:12:02.866Z,13.85
2019-03-28T22:14:32.352Z,13.97
2019-03-28T22:17:00.464Z,13.60
2019-03-28T22:19:28.471Z,13.27
2019-03-28T22:21:56.619Z,13.73
2019-03-28T22:24:24.730Z,11.60
2019-03-28T22:26:52.714Z,11.50
2019-03-28T22:29:20.947Z,12.00
2019-03-28T22:31:49.239Z,14.40
2019-03-28T22:34:17.514Z,12.90
2019-03-28T22:36:56.685Z,12.07
2019-03-28T22:39:15.495Z,14.50
2019-03-28T22:41:43.771Z,13.03
2019-03-28T22:44:14.272Z,12.97
2019-03-28T22:46:42.071Z,12.93
2019-03-28T22:49:10.137Z,10.97
2019-03-28T22:51:38.281Z,12.20
2019-03-28T22:54:06.436Z,13.00
2019-03-28T22:56:34.551Z,15.65
2019-03-28T22:59:02.647Z,14.03
2019-03-28T23:01:32.986Z,12.33
2019-03-28T23:04:03.433Z,12.23
2019-03-28T23:06:31.910Z,12.70
2019-03-28T23:09:00.066Z,13.03
2019-03-28T23:11:28.208Z,11.10
2019-03-28T23:13:56.308Z,13.60
2019-03-28T23:16:24.423Z,16.43
2019-03-28T23:18:52.572Z,12.73
2019-03-28T23:21:20.582Z,14.87
2019-03-28T23:23:48.423Z,13.40
2019-03-28T23:26:16.591Z,15.37
2019-03-28T23:28:44.874Z,15.07
2019-03-28T23:31:13.119Z,16.07
2019-03-28T23:33:41.081Z,15.43
2019-03-28T23:36:11.294Z,14.80
2019-03-28T23:38:40.637Z,18.60
2019-03-28T23:41:08.643Z,18.50
2019-03-28T23:43:36.763Z,16.27
2019-03-28T23:46:05.974Z,17.63
2019-03-28T23:48:34.049Z,16.10
2019-03-28T23:51:02.114Z,14.87
2019-03-28T23:53:30.099Z,15.37
2019-03-28T23:55:58.276Z,17.50
2019-03-28T23:58:29.901Z,19.13
